Rochester, New York
Current Conditions -  °F | °C
As of 11:54 AM on Thursday 23 Oct 2014 (Local Time) from KROC Reporting Station
Broken Clouds Broken Clouds  
Wind Chill: 53°   Ceiling: 5500
Heat Index: 53°   Visibility: 10mi
Dew Point: 40°   Wind: 14mph
Humidity: 61%   Direction: 360°N
Pressure: 30.07"   Gusts: NA
Location:  43.16°N, 77.62°W
Report Text: KROC 231554Z 36012KT 10SM BKN055 12/04 A3007 RMK AO2 SLP189 T01170044
Loading
Personal Weather Stations






























Interactive Weather Map
Tropical Storm Tracking
New forecast layout! Learn more

10-Day Weather Forecast

Advertisements
Track Severe Weather on mobile